Details From LPPT - Lisboa
To LPPR - Porto
Flight Number -
Tags generated
Created
Modified
Stats Distance 154 nm / 284 km
Max Altitude 15,700 ft / 4,785 m
Waypoints 4
Social Downloads 1
Likes 0
Share VATSIM

Download

Looking for another format? Having issues loading an existing format? Contact us
Advertisement - Login to hide

Notes

Basic altitude profile: - Ascent Rate: 2500ft/min - Ascent Speed: 250kts - Cruise Altitude: 35000ft - Cruise Speed: 420kts - Descent Rate: 1500ft/min - Descent Speed: 250kts Options: - Use NATs: yes - Use PACOTS: yes - Use low airways: yes - Use high airways: yes

Route

LPPT XAMAX A5 MANIK LPPR

ID Type Via Altitude Latitude Longitude Leg Dist Tot Dist Heading (true) Name
O LPPT APT - 0 ft / 0 m 38.77856˚ -9.13515˚ - 0 nm - Lisboa
XAMAX FIX - 15,700 ft / 4,785 m 40.03111˚ -8.53611˚ 80 nm 80 nm 20° / 20° -
MANIK FIX A5 (AWY-LO) 9,500 ft / 2,896 m 40.69194˚ -8.61611˚ 39 nm 120 nm 355° / 355° -
O LPPR APT - 0 ft / 0 m 41.24793˚ -8.68122˚ 33 nm 153 nm 355° / 355° Porto

Altitude Profile

Advertisement - Login to hide

LPPT

Details ICAO LPPT (LIS)
Name Lisboa
Region Portugal
Timezone Europe/Lisbon (UTC+0.0)
Stats Elevation 374 ft / 114 m (AMSL)
Location 38.778559° -9.135146°
Runways 2
Magnetic Variation 2.363° W

METAR

LPPT 171000Z 06008KT CAVOK 09/02 Q1032

Decode

TAF

TAF LPPT 170500Z 1706/1812 04008KT CAVOK PROB30 1718/1801 35008KT

Decode

Departure Runways

ID Width Length Bearing (true) Bearing (mag) Surface Threshold Offset Overrun Length
03 148 ft / 45 m 12,518 ft / 3,815 m 22.70° 25.06° Asphalt 296 ft / 90 m 0 ft / 0 m
17 148 ft / 45 m 7,922 ft / 2,415 m 168.38° 170.74° Asphalt 0 ft / 0 m 0 ft / 0 m
21 148 ft / 45 m 12,518 ft / 3,815 m 202.72° 205.08° Asphalt 1,969 ft / 600 m 0 ft / 0 m
35 148 ft / 45 m 7,922 ft / 2,415 m 348.38° 350.74° Asphalt 492 ft / 150 m 0 ft / 0 m

LPPR

Details ICAO LPPR (OPO)
Name Porto
Region Portugal
Timezone Europe/Lisbon (UTC+0.0)
Stats Elevation 228 ft / 69 m (AMSL)
Location 41.247932° -8.681221°
Runways 1
Magnetic Variation 2.339° W

METAR

LPPR 171000Z 05003KT 350V140 CAVOK 08/03 Q1033

Decode

TAF

TAF LPPR 170500Z 1706/1806 10005KT CAVOK PROB30 1713/1718 35010KT BECMG 1718/1720 VRB03KT BECMG 1721/1723 08005KT

Decode

Destination Runways

ID Width Length Bearing (true) Bearing (mag) Surface Threshold Offset Overrun Length
17 148 ft / 45 m 11,451 ft / 3,490 m 168.88° 171.22° Asphalt 984 ft / 300 m 220 ft / 67 m
35 148 ft / 45 m 11,451 ft / 3,490 m 348.89° 351.23° Asphalt 492 ft / 150 m 370 ft / 113 m

Approach Navaids

Runway Type Ident Frequency Range Bearing (true) Bearing (mag) Slope Elevation
17 Localiser PR 109.90 MHz 18 nm / 33 km 168.87° 171.21° - 228 ft / 69 m (AMSL)
17 Glidescope PR 109.90 MHz 10 nm / 19 km 168.88° 171.22° 2.72° 228 ft / 69 m (AMSL)
17 DME PR 109.90 MHz 18 nm / 33 km - - - 228 ft / 69 m (AMSL)

Popular Alternatives